Dolphin — WTD6974 — position and weather

sailwx.info

Track history (hours):
 
Tides and Currents Weather Stations Pressure Air Temp Water Temp Dewpoint Dewpoint Depression Visibility Wind Speed Wind Dir Waves Ship Positions

Dolphin

Owner: PENN MARITIME INC, Seattle, WA. More information available from US FCC via Universal Licensing System and Coast Guard Vessel Documentation Center.

Last reported at 2016-May-23 06:32 UTC. Time now 2016-May-25 07:11 UTC.
Position N 29°27' W 094°51'.

Length 41 m; draft 8.4 m.

Type: Towing. MMSI: 366920980.

Date/timePositionNaut miles runAvg speedWind from/ knotsBaromVisibWave heightAir tempDewpointWater temp
2016-May-23 06:32N 29°27' W 094°51'8 7.9
2016-May-23 05:33N 29°34' W 094°55'8 7.7
2016-May-23 04:32N 29°41' W 094°59'6 6.3
2016-May-23 03:33N 29°45' W 095°04'2 1.6
2016-May-23 02:30N 29°45' W 095°06'0 0.0
2016-May-23 01:32N 29°45' W 095°06'0 0.0
2016-May-23 00:24N 29°45' W 095°06'0 0.0
2016-May-22 17:21N 29°45' W 095°06'0 0.0
2016-May-22 16:32N 29°45' W 095°06'0 0.0
2016-May-22 15:33N 29°45' W 095°06'0 0.0
2016-May-22 14:28N 29°45' W 095°06'0 0.0
2016-May-22 13:33N 29°45' W 095°06'0 0.0
2016-May-22 12:32N 29°45' W 095°06'4 4.3
2016-May-22 11:33N 29°44' W 095°01'6 6.3
2016-May-22 10:32N 29°38' W 094°58'7 6.6
2016-May-22 09:33N 29°32' W 094°54'7 6.6
2016-May-22 08:31N 29°26' W 094°50'  
2016-May-15 11:28N 25°42' W 080°02'3 3.5
2016-May-15 10:33N 25°45' W 080°01'3 2.8
2016-May-15 09:33N 25°48' W 080°01'6 6.2
2016-May-15 08:33N 25°54' W 080°02'7 7.1
2016-May-15 07:33N 26°01' W 080°02'7 7.4
2016-May-15 06:33N 26°09' W 080°02'7 7.0
2016-May-15 05:33N 26°16' W 080°01'7 6.5
2016-May-15 04:33N 26°22' W 080°01'6 6.0
2016-May-15 03:33N 26°28' W 080°00'5 5.0
2016-May-15 02:33N 26°33' W 080°00'5 4.6
2016-May-15 01:33N 26°38' W 080°00'10 4.1
2016-May-14 23:13N 26°47' W 079°60'3 3.9
2016-May-14 22:33N 26°50' W 079°60'3 3.4
2016-May-14 21:34N 26°53' W 079°60'4 4.0
2016-May-14 20:33N 26°57' W 079°59'5 4.5
2016-May-14 19:33N 27°02' W 079°60'  
Track history (hours):
 
Tides and Currents Weather Stations Pressure Air Temp Water Temp Dewpoint Dewpoint Depression Visibility Wind Speed Wind Dir Waves Ship Positions

Dolphin

Owner: PENN MARITIME INC, Seattle, WA. More information available from US FCC via Universal Licensing System and Coast Guard Vessel Documentation Center.

Last reported at 2016-May-23 06:32 UTC. Time now 2016-May-25 07:11 UTC.
Position N 29°27' W 094°51'.

Length 41 m; draft 8.4 m.

Type: Towing. MMSI: 366920980.

Date/timePositionNaut miles runAvg speedWind from/ knotsBaromVisibWave heightAir tempDewpointWater temp
2016-May-23 06:32N 29°27' W 094°51'8 7.9
2016-May-23 05:33N 29°34' W 094°55'8 7.7
2016-May-23 04:32N 29°41' W 094°59'6 6.3
2016-May-23 03:33N 29°45' W 095°04'2 1.6
2016-May-23 02:30N 29°45' W 095°06'0 0.0
2016-May-23 01:32N 29°45' W 095°06'0 0.0
2016-May-23 00:24N 29°45' W 095°06'0 0.0
2016-May-22 17:21N 29°45' W 095°06'0 0.0
2016-May-22 16:32N 29°45' W 095°06'0 0.0
2016-May-22 15:33N 29°45' W 095°06'0 0.0
2016-May-22 14:28N 29°45' W 095°06'0 0.0
2016-May-22 13:33N 29°45' W 095°06'0 0.0
2016-May-22 12:32N 29°45' W 095°06'4 4.3
2016-May-22 11:33N 29°44' W 095°01'6 6.3
2016-May-22 10:32N 29°38' W 094°58'7 6.6
2016-May-22 09:33N 29°32' W 094°54'7 6.6
2016-May-22 08:31N 29°26' W 094°50'  
2016-May-15 11:28N 25°42' W 080°02'3 3.5
2016-May-15 10:33N 25°45' W 080°01'3 2.8
2016-May-15 09:33N 25°48' W 080°01'6 6.2
2016-May-15 08:33N 25°54' W 080°02'7 7.1
2016-May-15 07:33N 26°01' W 080°02'7 7.4
2016-May-15 06:33N 26°09' W 080°02'7 7.0
2016-May-15 05:33N 26°16' W 080°01'7 6.5
2016-May-15 04:33N 26°22' W 080°01'6 6.0
2016-May-15 03:33N 26°28' W 080°00'5 5.0
2016-May-15 02:33N 26°33' W 080°00'5 4.6
2016-May-15 01:33N 26°38' W 080°00'10 4.1
2016-May-14 23:13N 26°47' W 079°60'3 3.9
2016-May-14 22:33N 26°50' W 079°60'3 3.4
2016-May-14 21:34N 26°53' W 079°60'4 4.0
2016-May-14 20:33N 26°57' W 079°59'5 4.5
2016-May-14 19:33N 27°02' W 079°60'  

Dump ship's entire track history